Impacts TAF Board
For situational awareness. Not to be used for flight planning purposes.
IDs:

KDEN - Denver Intl, CO, US

Issued at 2040 UTC 21 May 2022
Updated at 2247 UTC 21 May 2022
Potential Impact None Slight Moderate High
Time2153Z 21/23Z 22/00Z 22/01Z 22/02Z 22/03Z 22/04Z 22/05Z 22/06Z 22/07Z 22/08Z 22/09Z 22/10Z 22/11Z>>
Type OBS PRVL PRVL PRVL PRVL PRVL PRVL PRVL PRVL PRVL PRVL PRVL PRVL PRVL
VIS 10 >6 >6 >6 >6 >6 >6 >6 >6 >6 >6 >6 >6 >6
CIG 50 90 90 90 90 220 220 220 220 220 220 220 220 220
Cover BKN BKN BKN BKN BKN BKN BKN BKN BKN BKN BKN BKN BKN BKN
FltCat VFR VFR VFR VFR VFR VFR VFR VFR VFR VFR VFR VFR VFR VFR
WX -- VCSH VCSH VCSH VCSH -- -- -- -- -- -- -- -- --
WDir VRB 190 190 190 190 200 200 200 200 200 200 200 200 200
WSpd 3 8 8 8 8 10 10 10 10 10 10 10 10 10
WGst -- -- -- -- -- -- -- -- -- -- -- -- -- --
WSHgt -- -- -- -- -- -- -- -- -- -- -- -- -- --
WSDir -- -- -- -- -- -- -- -- -- -- -- -- -- --
WSSpd -- -- -- -- -- -- -- -- -- -- -- -- -- --
Raw TAF
KDEN 212040Z 2121/2224 VRB06KT P6SM FEW040 BKN060
  FM212300 19008KT P6SM VCSH SCT050 BKN090
  FM220300 20010KT P6SM SCT120 BKN220
  FM221400 18014KT P6SM BKN040 OVC100
  FM221900 17018KT P6SM BKN060 OVC100


Raw METAR
KDEN 212153Z VRB03KT 10SM BKN050 BKN220 07/M03 A3024 RMK AO2 SLP234 T00721033 $
KDEN 212053Z 00000KT 10SM BKN050 BKN120 BKN220 07/M04 A3025 RMK AO2 SLP237 T00671044 56005 $
KDEN 211953Z VRB03KT 10SM FEW040 BKN055 BKN120 BKN220 07/M03 A3025 RMK AO2 SLP241 T00671028 $

METAR Board
Radar Display
Forecast Discussion
For situational awareness. Not to be used for flight planning purposes.